Aérodrome :
LOGIN :

S'inscrire | Disclaimer

   EN    FR    IT 

 










Légende :    VFR   VFR Marginal   IFR   IFR Intensif   IFR Très Intensif
Visi : 
Plafond : 
>= 8 km
>= 3000ft
5 à 8 km
1000 à 3000 ft
1500m à 5 km
500 à 1000 ft
800 à 1500m
200 à 500 ft
< 800m
< 200 ft
Symboles :   Orages  Brouillard  Fortes neiges  Fortes précipitations  Vent > 20 kt
SIGMETs :   Divers  Orages  Givrage  Turbulence  Onde Orograph.  Cendres Volcan.







- Altitude de l'aérodrome : 1910 ft
- Code IATA : RDZ
- Voir les cartes d'approche


LFCR - Rodez

DERNIER METAR :
  • 190130Z AUTO 11003KT CAVOK 09/08 Q1018 TEMPO 4000 BR

METARs EXPIRÉS :
  • 190100Z AUTO VRB03KT 8000 NSC 10/09 Q1018 TEMPO 4000 BR
  • 190030Z AUTO 00000KT CAVOK 10/09 Q1017 TEMPO 4000 BR
  • 190000Z AUTO 11003KT CAVOK 09/09 Q1017 TEMPO 4000 BR
  • 182330Z AUTO 15002KT CAVOK 10/08 Q1017 TEMPO 4000 BR
  • 182300Z AUTO 15004KT CAVOK 10/09 Q1017 TEMPO 4000 BR

TAF TAF LFCR
Valide du 19 à 00h jusqu'au 20 à 00h UTC


182300Z 1900/1924 VRB02KT CAVOK
PROB30 1900/1904 4000 BR
Pas de NOTAMs connus pour ce terrain.



MET'MAP, la Météo Aéronautique d'un coup d'oeil ! - Copyright ORBIFLY Décembre 2007 - Disclaimer

ORBIFLY MET'MAP TEAM :

Programmation & Développement : Alexandra Zaïnal
Conception & Développement : Baudouin d'Aumeries
Co-Programmation & Développement : Marc-Olivier Méhu
Soutien technique & logistique : Manuel Goepfert

Contact : metmap@orbifly.com




SOURCES & CREDITS :

   NOAA